Time;durP1;ratioP1;P1;durP2;ratioP2;P2;SDS_P1;SDS_P2;PMS_P1;PMS_P2;Temp;Humidity;BMP_temperature;BMP_pressure;BME280_temperature;BME280_humidity;BME280_pressure;Samples;Min_cycle;Max_cycle;Signal;HPM_P1;HPM_P2
2021/08/20 00:01:48;;;;;;;2.53;1.80;;;;;;;;;;5049162;28;20487;-83
2021/08/20 00:04:14;;;;;;;2.23;2.03;;;;;;;;;;5049236;28;20448;-83
2021/08/20 00:06:40;;;;;;;2.93;2.00;;;;;;;;;;5050455;28;20820;-83
2021/08/20 00:09:07;;;;;;;2.37;2.07;;;;;;;;;;5059405;28;20440;-84
2021/08/20 00:11:33;;;;;;;2.67;2.15;;;;;;;;;;5062823;28;20428;-83
2021/08/20 00:13:59;;;;;;;2.08;1.83;;;;;;;;;;5048449;28;20181;-84
2021/08/20 00:16:25;;;;;;;2.22;2.10;;;;;;;;;;5048617;28;20185;-84
2021/08/20 00:18:51;;;;;;;2.20;1.73;;;;;;;;;;5046266;28;20221;-84
2021/08/20 00:21:17;;;;;;;3.10;1.90;;;;;;;;;;5045214;28;20471;-83
2021/08/20 00:23:43;;;;;;;2.33;1.77;;;;;;;;;;5043067;28;20474;-84
2021/08/20 00:26:09;;;;;;;3.43;2.30;;;;;;;;;;5063813;28;20453;-83
2021/08/20 00:28:35;;;;;;;4.53;2.20;;;;;;;;;;5048796;28;20432;-84
2021/08/20 00:31:01;;;;;;;2.17;2.00;;;;;;;;;;5049245;28;20440;-84
2021/08/20 00:33:27;;;;;;;2.45;2.25;;;;;;;;;;5057826;28;20195;-84
2021/08/20 00:35:54;;;;;;;1.95;1.85;;;;;;;;;;5042522;28;20182;-83
2021/08/20 00:38:20;;;;;;;1.95;1.85;;;;;;;;;;5054893;28;20240;-84
2021/08/20 00:40:46;;;;;;;2.63;2.42;;;;;;;;;;5059128;28;20235;-84
2021/08/20 00:43:12;;;;;;;2.23;2.03;;;;;;;;;;5052648;28;20182;-84
2021/08/20 00:45:38;;;;;;;3.17;2.22;;;;;;;;;;5048066;28;20769;-84
2021/08/20 00:48:06;;;;;;;2.78;2.53;;;;;;;;;;5057604;28;20194;-82
2021/08/20 00:50:32;;;;;;;3.30;1.70;;;;;;;;;;5047289;28;20174;-83
2021/08/20 00:52:58;;;;;;;3.25;1.80;;;;;;;;;;5047468;28;20181;-84
2021/08/20 00:55:24;;;;;;;3.03;1.87;;;;;;;;;;5048105;28;20312;-83
2021/08/20 00:57:51;;;;;;;1.80;1.70;;;;;;;;;;5047751;28;20436;-83
2021/08/20 01:00:17;;;;;;;2.42;2.22;;;;;;;;;;5046720;28;20204;-82
2021/08/20 01:02:44;;;;;;;2.22;2.00;;;;;;;;;;5044450;28;20201;-83
2021/08/20 01:05:10;;;;;;;2.45;2.08;;;;;;;;;;5047681;28;20174;-83
2021/08/20 01:07:37;;;;;;;3.92;2.30;;;;;;;;;;5047553;28;20217;-84
2021/08/20 01:10:05;;;;;;;5.45;2.03;;;;;;;;;;5047396;28;20216;-84
2021/08/20 01:12:31;;;;;;;2.25;1.95;;;;;;;;;;5047032;28;20249;-84
2021/08/20 01:14:57;;;;;;;2.77;1.60;;;;;;;;;;5042933;28;20182;-84
2021/08/20 01:17:23;;;;;;;5.33;2.13;;;;;;;;;;5048137;28;20498;-84
2021/08/20 01:19:49;;;;;;;2.00;1.80;;;;;;;;;;5046429;28;21017;-84
2021/08/20 01:22:15;;;;;;;1.67;1.55;;;;;;;;;;5047903;28;20439;-84
2021/08/20 01:24:42;;;;;;;2.00;1.80;;;;;;;;;;5044562;28;20185;-84
2021/08/20 01:27:08;;;;;;;1.98;1.77;;;;;;;;;;5057116;28;20678;-84
2021/08/20 01:29:34;;;;;;;2.03;1.80;;;;;;;;;;5061310;28;20173;-84
2021/08/20 01:32:00;;;;;;;2.45;2.25;;;;;;;;;;5047971;28;20948;-83
2021/08/20 01:34:26;;;;;;;2.40;2.00;;;;;;;;;;5046169;28;20186;-84
2021/08/20 01:36:53;;;;;;;2.47;2.03;;;;;;;;;;5047074;28;20440;-84
2021/08/20 01:39:19;;;;;;;2.03;1.70;;;;;;;;;;5041448;28;20189;-84
2021/08/20 01:41:45;;;;;;;2.00;1.90;;;;;;;;;;5057461;28;20218;-83
2021/08/20 01:44:11;;;;;;;1.90;1.80;;;;;;;;;;5047789;28;20169;-84
2021/08/20 01:46:37;;;;;;;2.35;2.15;;;;;;;;;;5045786;28;20190;-84
2021/08/20 01:49:03;;;;;;;5.38;2.13;;;;;;;;;;5050215;28;20195;-84
2021/08/20 01:51:30;;;;;;;2.58;1.65;;;;;;;;;;5057292;28;20184;-83
2021/08/20 01:53:57;;;;;;;2.60;2.40;;;;;;;;;;5040984;28;20235;-84
2021/08/20 01:56:27;;;;;;;2.40;1.80;;;;;;;;;;5047640;28;20188;-85
2021/08/20 01:58:54;;;;;;;2.88;2.00;;;;;;;;;;5046563;28;20244;-84
2021/08/20 02:01:20;;;;;;;2.25;2.05;;;;;;;;;;5053437;28;20220;-84
2021/08/20 02:03:46;;;;;;;2.60;1.67;;;;;;;;;;5053406;28;20186;-84
2021/08/20 02:06:13;;;;;;;1.98;1.77;;;;;;;;;;5041615;28;20221;-83
2021/08/20 02:08:39;;;;;;;5.00;1.90;;;;;;;;;;5057854;28;20240;-83
2021/08/20 02:11:05;;;;;;;2.33;2.10;;;;;;;;;;5046553;28;20209;-84
2021/08/20 02:13:31;;;;;;;2.65;1.75;;;;;;;;;;5047051;28;20426;-83
2021/08/20 02:15:57;;;;;;;2.83;1.83;;;;;;;;;;5050487;28;20181;-84
2021/08/20 02:18:24;;;;;;;2.45;1.95;;;;;;;;;;5056956;28;20283;-83
2021/08/20 02:20:50;;;;;;;2.95;2.53;;;;;;;;;;5040821;28;20213;-84
2021/08/20 02:23:16;;;;;;;2.10;1.90;;;;;;;;;;5047113;28;20192;-84
2021/08/20 02:25:42;;;;;;;2.33;1.70;;;;;;;;;;5046510;28;20196;-84
2021/08/20 02:28:08;;;;;;;2.55;2.15;;;;;;;;;;5046914;28;20194;-85
2021/08/20 02:30:34;;;;;;;2.22;1.95;;;;;;;;;;5044381;28;20191;-84
2021/08/20 02:33:00;;;;;;;2.47;2.17;;;;;;;;;;5038820;28;20209;-84
2021/08/20 02:35:26;;;;;;;2.38;1.85;;;;;;;;;;5059519;28;20188;-83
2021/08/20 02:37:53;;;;;;;2.22;2.03;;;;;;;;;;5053767;28;20196;-84
2021/08/20 02:40:19;;;;;;;2.10;1.67;;;;;;;;;;5048348;28;20277;-84
2021/08/20 02:42:45;;;;;;;2.80;2.00;;;;;;;;;;5045908;28;20185;-81
2021/08/20 02:45:11;;;;;;;2.10;1.90;;;;;;;;;;5044079;28;20185;-84
2021/08/20 02:47:38;;;;;;;4.88;1.63;;;;;;;;;;5044488;28;20428;-84
2021/08/20 02:50:04;;;;;;;2.85;1.95;;;;;;;;;;5057890;28;20186;-84
2021/08/20 02:52:30;;;;;;;2.20;2.00;;;;;;;;;;5039453;28;20190;-84
2021/08/20 02:54:56;;;;;;;2.33;2.05;;;;;;;;;;5038967;28;20248;-84
2021/08/20 02:57:23;;;;;;;2.13;1.85;;;;;;;;;;5045874;28;20632;-84
2021/08/20 02:59:50;;;;;;;1.80;1.70;;;;;;;;;;5039847;28;20698;-84
2021/08/20 03:02:16;;;;;;;3.30;2.50;;;;;;;;;;5050251;28;20177;-84
2021/08/20 03:04:42;;;;;;;2.05;1.75;;;;;;;;;;5058384;28;20185;-84
2021/08/20 03:07:08;;;;;;;2.78;2.58;;;;;;;;;;5056149;28;20208;-84
2021/08/20 03:09:34;;;;;;;2.05;1.85;;;;;;;;;;5049457;28;20486;-83
2021/08/20 03:12:00;;;;;;;2.80;2.03;;;;;;;;;;5043447;28;20198;-84
2021/08/20 03:14:26;;;;;;;3.00;2.28;;;;;;;;;;5049081;28;20419;-83
2021/08/20 03:16:52;;;;;;;2.42;2.10;;;;;;;;;;5055871;28;20180;-84
2021/08/20 03:19:18;;;;;;;3.65;2.20;;;;;;;;;;5053438;28;20236;-84
2021/08/20 03:21:44;;;;;;;3.00;2.70;;;;;;;;;;5047226;28;20202;-84
2021/08/20 03:24:11;;;;;;;2.33;2.00;;;;;;;;;;5059973;28;20813;-84
2021/08/20 03:26:37;;;;;;;2.25;1.90;;;;;;;;;;5047187;28;20440;-84
2021/08/20 03:29:03;;;;;;;2.60;1.95;;;;;;;;;;5049444;28;20170;-84
2021/08/20 03:31:29;;;;;;;2.63;1.70;;;;;;;;;;5048570;28;20193;-84
2021/08/20 03:33:55;;;;;;;1.95;1.80;;;;;;;;;;5048948;28;20432;-86
2021/08/20 03:36:22;;;;;;;2.50;2.30;;;;;;;;;;5049187;28;20195;-84
2021/08/20 03:38:50;;;;;;;2.22;2.03;;;;;;;;;;5045737;28;20527;-84
2021/08/20 03:41:16;;;;;;;2.25;1.70;;;;;;;;;;5049780;28;20206;-83
2021/08/20 03:43:41;;;;;;;2.40;1.80;;;;;;;;;;5054639;28;20275;-84
2021/08/20 03:46:09;;;;;;;2.63;2.03;;;;;;;;;;5054325;28;20435;-84
2021/08/20 03:48:36;;;;;;;3.03;2.70;;;;;;;;;;5048521;28;20463;-84
2021/08/20 03:51:02;;;;;;;1.77;1.67;;;;;;;;;;5045628;28;20193;-84
2021/08/20 03:53:28;;;;;;;2.55;2.05;;;;;;;;;;5049533;28;20177;-84
2021/08/20 03:55:54;;;;;;;2.05;1.52;;;;;;;;;;5050268;28;20170;-83
2021/08/20 03:58:20;;;;;;;1.83;1.73;;;;;;;;;;5049076;28;20186;-84
2021/08/20 04:00:52;;;;;;;1.98;1.77;;;;;;;;;;5048262;28;20534;-84
2021/08/20 04:03:20;;;;;;;3.10;2.40;;;;;;;;;;5048042;28;20185;-84
2021/08/20 04:05:47;;;;;;;2.20;2.00;;;;;;;;;;5043663;28;20194;-84
2021/08/20 04:08:13;;;;;;;1.90;1.73;;;;;;;;;;5050150;28;20555;-84
2021/08/20 04:10:40;;;;;;;1.75;1.65;;;;;;;;;;5048535;28;20265;-84
2021/08/20 04:13:06;;;;;;;2.03;1.60;;;;;;;;;;5048191;28;20193;-84
2021/08/20 04:15:32;;;;;;;3.03;2.72;;;;;;;;;;5048009;28;20236;-84
2021/08/20 04:17:58;;;;;;;1.80;1.60;;;;;;;;;;5058583;28;20205;-83
2021/08/20 04:20:24;;;;;;;2.00;1.80;;;;;;;;;;5049916;28;20543;-82
2021/08/20 04:22:50;;;;;;;2.15;1.85;;;;;;;;;;5048537;28;20911;-84
2021/08/20 04:25:16;;;;;;;2.65;2.20;;;;;;;;;;5047827;28;20181;-84
2021/08/20 04:27:42;;;;;;;2.20;2.00;;;;;;;;;;5048483;28;20181;-84
2021/08/20 04:30:08;;;;;;;2.38;2.17;;;;;;;;;;5046092;28;20182;-84
2021/08/20 04:32:34;;;;;;;1.60;1.48;;;;;;;;;;5045771;28;20269;-84
2021/08/20 04:35:00;;;;;;;2.83;1.97;;;;;;;;;;5048904;28;20213;-85
2021/08/20 04:37:26;;;;;;;2.70;2.10;;;;;;;;;;5048307;28;20443;-84
2021/08/20 04:39:52;;;;;;;2.25;1.90;;;;;;;;;;5045687;28;20185;-84
2021/08/20 04:42:18;;;;;;;2.47;2.27;;;;;;;;;;5059123;28;20276;-84
2021/08/20 04:44:44;;;;;;;2.40;2.05;;;;;;;;;;5058283;28;20518;-84
2021/08/20 04:47:10;;;;;;;3.08;1.98;;;;;;;;;;5049000;28;20170;-84
2021/08/20 04:49:36;;;;;;;2.05;1.92;;;;;;;;;;5047807;28;20244;-84
2021/08/20 04:52:02;;;;;;;1.90;1.80;;;;;;;;;;5047801;28;20185;-84
2021/08/20 04:54:29;;;;;;;2.65;2.10;;;;;;;;;;5047213;28;20185;-84
2021/08/20 04:56:55;;;;;;;2.42;2.10;;;;;;;;;;5041389;28;20185;-83
2021/08/20 04:59:21;;;;;;;3.43;1.60;;;;;;;;;;5048570;28;20181;-85
2021/08/20 05:01:47;;;;;;;2.30;1.85;;;;;;;;;;5047590;28;20995;-84
2021/08/20 05:04:14;;;;;;;3.13;2.08;;;;;;;;;;5054093;28;20211;-84
2021/08/20 05:06:40;;;;;;;2.45;1.80;;;;;;;;;;5057861;28;20183;-84
2021/08/20 05:09:09;;;;;;;2.40;1.95;;;;;;;;;;5044948;28;20190;-84
2021/08/20 05:11:35;;;;;;;2.15;1.95;;;;;;;;;;5044346;28;20174;-83
2021/08/20 05:14:01;;;;;;;3.25;1.73;;;;;;;;;;5047481;28;20178;-85
2021/08/20 05:16:28;;;;;;;2.42;2.20;;;;;;;;;;5050215;28;20193;-84
2021/08/20 05:18:55;;;;;;;3.70;2.03;;;;;;;;;;5055516;28;20332;-84
2021/08/20 05:21:21;;;;;;;3.10;2.35;;;;;;;;;;5046514;28;20264;-84
2021/08/20 05:23:48;;;;;;;2.47;2.00;;;;;;;;;;5041523;28;20197;-84
2021/08/20 05:26:14;;;;;;;2.08;1.90;;;;;;;;;;5048290;28;20900;-84
2021/08/20 05:28:40;;;;;;;2.30;2.10;;;;;;;;;;5047297;28;20215;-84
2021/08/20 05:31:06;;;;;;;1.77;1.67;;;;;;;;;;5047737;28;20479;-84
2021/08/20 05:33:32;;;;;;;2.20;2.00;;;;;;;;;;5042233;28;20516;-81
2021/08/20 05:35:58;;;;;;;2.85;2.28;;;;;;;;;;5041749;28;20535;-84
2021/08/20 05:38:23;;;;;;;2.10;1.90;;;;;;;;;;5060021;28;20606;-84
2021/08/20 05:40:50;;;;;;;2.23;2.10;;;;;;;;;;5046687;28;20562;-84
2021/08/20 05:43:16;;;;;;;2.08;1.88;;;;;;;;;;5046361;28;20457;-85
2021/08/20 05:45:42;;;;;;;4.07;1.85;;;;;;;;;;5045822;28;20231;-84
2021/08/20 05:48:08;;;;;;;2.43;2.03;;;;;;;;;;5043365;28;20691;-84
2021/08/20 05:50:36;;;;;;;1.90;1.70;;;;;;;;;;5045605;28;20416;-83
2021/08/20 05:53:02;;;;;;;3.55;2.50;;;;;;;;;;5047453;28;20184;-84
2021/08/20 05:55:30;;;;;;;2.15;1.90;;;;;;;;;;5046083;28;20214;-84
2021/08/20 05:57:57;;;;;;;2.05;1.85;;;;;;;;;;5046743;28;20185;-83
2021/08/20 06:00:23;;;;;;;2.45;2.15;;;;;;;;;;5047632;28;20201;-84
2021/08/20 06:02:49;;;;;;;2.72;2.53;;;;;;;;;;5041820;28;20252;-84
2021/08/20 06:05:15;;;;;;;2.22;2.03;;;;;;;;;;5047220;28;20542;-85
2021/08/20 06:07:41;;;;;;;2.07;1.73;;;;;;;;;;5052797;28;20181;-83
2021/08/20 06:10:08;;;;;;;3.78;2.35;;;;;;;;;;5052156;28;20535;-84
2021/08/20 06:12:34;;;;;;;1.92;1.83;;;;;;;;;;5042257;28;20241;-84
2021/08/20 06:15:00;;;;;;;3.47;1.80;;;;;;;;;;5055282;28;20217;-84
2021/08/20 06:17:26;;;;;;;2.65;2.22;;;;;;;;;;5058866;28;20175;-84
2021/08/20 06:19:52;;;;;;;2.35;2.15;;;;;;;;;;5056753;28;20217;-84
2021/08/20 06:22:18;;;;;;;2.85;2.45;;;;;;;;;;5050238;28;20193;-84
2021/08/20 06:24:44;;;;;;;2.80;2.10;;;;;;;;;;5045648;28;20273;-84
2021/08/20 06:27:10;;;;;;;3.00;2.70;;;;;;;;;;5044177;28;20491;-84
2021/08/20 06:29:36;;;;;;;2.00;1.80;;;;;;;;;;5044177;28;20420;-84
2021/08/20 06:32:02;;;;;;;2.50;2.30;;;;;;;;;;5060198;28;20428;-84
2021/08/20 06:34:30;;;;;;;1.88;1.73;;;;;;;;;;5047422;28;20220;-84
2021/08/20 06:36:56;;;;;;;1.90;1.80;;;;;;;;;;5044684;28;20177;-84
2021/08/20 06:39:22;;;;;;;3.80;2.35;;;;;;;;;;5043058;28;20256;-84
2021/08/20 06:41:48;;;;;;;3.03;2.20;;;;;;;;;;5043010;28;20229;-84
2021/08/20 06:44:14;;;;;;;2.35;2.15;;;;;;;;;;5047675;28;20543;-84
2021/08/20 06:46:41;;;;;;;2.00;1.70;;;;;;;;;;5045971;28;20201;-84
2021/08/20 06:49:08;;;;;;;2.50;2.30;;;;;;;;;;5040023;28;20191;-84
2021/08/20 06:51:34;;;;;;;2.92;2.30;;;;;;;;;;5040964;28;20182;-83
2021/08/20 06:54:00;;;;;;;2.55;2.17;;;;;;;;;;5055313;28;20197;-84
2021/08/20 06:56:26;;;;;;;3.65;2.33;;;;;;;;;;5046839;28;20535;-84
2021/08/20 06:58:52;;;;;;;2.78;2.40;;;;;;;;;;5045791;28;20200;-84
2021/08/20 07:01:18;;;;;;;2.70;1.83;;;;;;;;;;5045688;28;20694;-85
2021/08/20 07:03:44;;;;;;;3.15;2.20;;;;;;;;;;5043838;28;20189;-84
2021/08/20 07:06:17;;;;;;;3.47;2.20;;;;;;;;;;5043588;28;20190;-84
2021/08/20 07:08:43;;;;;;;4.55;1.85;;;;;;;;;;5041474;28;20432;-84
2021/08/20 07:11:09;;;;;;;2.50;2.13;;;;;;;;;;5056270;28;20632;-84
2021/08/20 07:13:35;;;;;;;3.07;2.10;;;;;;;;;;5047569;28;20440;-84
2021/08/20 07:16:01;;;;;;;2.40;2.20;;;;;;;;;;5048865;28;20438;-84
2021/08/20 07:18:27;;;;;;;2.40;2.20;;;;;;;;;;5057666;28;20533;-84
2021/08/20 07:20:53;;;;;;;2.27;2.07;;;;;;;;;;5039135;28;20468;-84
2021/08/20 07:23:19;;;;;;;2.47;1.80;;;;;;;;;;5046382;28;20417;-84
2021/08/20 07:25:45;;;;;;;2.38;1.90;;;;;;;;;;5046001;28;20432;-84
2021/08/20 07:28:11;;;;;;;3.53;2.30;;;;;;;;;;5045534;28;20178;-84
2021/08/20 07:30:37;;;;;;;2.80;1.87;;;;;;;;;;5044029;28;20485;-84
2021/08/20 07:33:03;;;;;;;2.20;2.00;;;;;;;;;;5040789;28;20821;-84
2021/08/20 07:35:29;;;;;;;2.77;2.50;;;;;;;;;;5044752;28;20457;-84
2021/08/20 07:37:55;;;;;;;3.40;1.93;;;;;;;;;;5045372;28;20421;-84
2021/08/20 07:40:21;;;;;;;3.10;2.45;;;;;;;;;;5044255;28;20470;-84
2021/08/20 07:42:47;;;;;;;2.25;1.90;;;;;;;;;;5044523;28;20186;-84
2021/08/20 07:45:14;;;;;;;2.60;2.20;;;;;;;;;;5040846;28;20265;-84
2021/08/20 07:47:50;;;;;;;2.92;2.25;;;;;;;;;;5059072;28;20528;-84
2021/08/20 07:50:16;;;;;;;2.22;2.03;;;;;;;;;;5065346;28;20196;-84
2021/08/20 07:52:44;;;;;;;1.92;1.83;;;;;;;;;;5059997;28;20197;-84
2021/08/20 07:55:10;;;;;;;2.90;2.45;;;;;;;;;;5054144;28;20281;-84
2021/08/20 07:57:49;;;;;;;2.38;1.92;;;;;;;;;;5048835;28;20261;-84
2021/08/20 08:00:18;;;;;;;2.70;1.63;;;;;;;;;;5047369;28;20208;-84
2021/08/20 08:02:44;;;;;;;5.13;2.45;;;;;;;;;;5061477;28;20177;-84
2021/08/20 08:05:10;;;;;;;3.07;2.30;;;;;;;;;;5049108;28;20178;-85
2021/08/20 08:07:36;;;;;;;2.95;1.80;;;;;;;;;;5047099;28;20432;-82
2021/08/20 08:10:03;;;;;;;1.80;1.70;;;;;;;;;;5054102;28;20190;-84
2021/08/20 08:12:29;;;;;;;2.67;2.22;;;;;;;;;;5059531;28;20181;-84
2021/08/20 08:14:55;;;;;;;2.55;2.35;;;;;;;;;;5043608;28;20183;-84
2021/08/20 08:17:21;;;;;;;2.83;2.33;;;;;;;;;;5073595;28;20173;-84
2021/08/20 08:19:47;;;;;;;2.13;1.80;;;;;;;;;;5054880;28;20459;-84
2021/08/20 08:22:13;;;;;;;3.27;2.10;;;;;;;;;;5053229;28;20458;-85
2021/08/20 08:24:39;;;;;;;3.05;2.13;;;;;;;;;;5047979;28;20959;-85
2021/08/20 08:27:05;;;;;;;2.50;1.97;;;;;;;;;;5042075;28;20183;-85
2021/08/20 08:29:31;;;;;;;5.50;2.53;;;;;;;;;;5060014;28;20429;-84
2021/08/20 08:31:57;;;;;;;2.78;2.40;;;;;;;;;;5056600;28;20182;-83
2021/08/20 08:34:23;;;;;;;4.35;2.10;;;;;;;;;;5050728;28;20193;-84
2021/08/20 08:36:49;;;;;;;3.27;2.47;;;;;;;;;;5047885;28;20186;-84
2021/08/20 08:39:15;;;;;;;3.33;2.20;;;;;;;;;;5043723;28;20446;-85
2021/08/20 08:41:41;;;;;;;2.67;2.37;;;;;;;;;;5059642;28;20463;-84
2021/08/20 08:44:07;;;;;;;4.40;2.30;;;;;;;;;;5057621;28;20486;-84
2021/08/20 08:46:37;;;;;;;2.23;2.03;;;;;;;;;;5050174;28;20414;-85
2021/08/20 08:49:04;;;;;;;2.92;1.95;;;;;;;;;;5044828;28;20963;-84
2021/08/20 08:51:31;;;;;;;2.67;2.10;;;;;;;;;;5048235;28;20189;-84
2021/08/20 08:53:57;;;;;;;2.35;2.15;;;;;;;;;;5041430;28;20191;-84
2021/08/20 08:56:23;;;;;;;3.17;2.20;;;;;;;;;;5050639;28;20190;-85
2021/08/20 08:58:50;;;;;;;3.58;1.70;;;;;;;;;;5047135;28;20285;-85
2021/08/20 09:01:30;;;;;;;2.47;2.28;;;;;;;;;;5047986;28;20210;-85
2021/08/20 09:04:12;;;;;;;2.83;2.00;;;;;;;;;;5050062;28;20183;-84
2021/08/20 09:06:41;;;;;;;3.80;2.13;;;;;;;;;;5054610;28;20273;-84
2021/08/20 09:09:08;;;;;;;1.90;1.80;;;;;;;;;;5056428;28;20216;-84
2021/08/20 09:11:34;;;;;;;1.65;1.50;;;;;;;;;;5045300;28;20171;-84
2021/08/20 09:14:01;;;;;;;2.10;1.90;;;;;;;;;;5048250;28;20190;-84
2021/08/20 09:16:36;;;;;;;2.75;1.60;;;;;;;;;;5047567;28;20203;-84
2021/08/20 09:19:23;;;;;;;1.90;1.80;;;;;;;;;;5045509;28;20230;-84
2021/08/20 09:21:53;;;;;;;2.17;1.98;;;;;;;;;;5048085;28;20699;-84
2021/08/20 09:24:31;;;;;;;3.65;2.17;;;;;;;;;;5046197;28;20191;-85
2021/08/20 09:27:17;;;;;;;4.13;1.85;;;;;;;;;;5040005;28;20188;-84
2021/08/20 09:30:04;;;;;;;2.92;1.80;;;;;;;;;;5058444;28;20543;-85
2021/08/20 09:32:30;;;;;;;2.20;1.95;;;;;;;;;;5059318;28;20267;-84
2021/08/20 09:34:58;;;;;;;1.75;1.58;;;;;;;;;;5047075;28;20173;-85
2021/08/20 09:37:24;;;;;;;2.60;1.33;;;;;;;;;;5046006;28;20181;-85
2021/08/20 09:39:56;;;;;;;1.92;1.70;;;;;;;;;;5047000;28;20431;-84
2021/08/20 09:42:22;;;;;;;1.38;1.27;;;;;;;;;;5046377;28;20192;-84
2021/08/20 09:45:08;;;;;;;2.77;1.80;;;;;;;;;;5041436;28;20202;-85
2021/08/20 09:47:40;;;;;;;1.50;1.30;;;;;;;;;;5055114;28;21015;-85
2021/08/20 09:50:06;;;;;;;2.80;1.93;;;;;;;;;;5059153;28;20425;-85
2021/08/20 09:52:32;;;;;;;2.50;1.90;;;;;;;;;;5044637;28;20436;-85
2021/08/20 09:54:58;;;;;;;2.70;1.90;;;;;;;;;;5044898;28;20936;-85
2021/08/20 09:57:26;;;;;;;1.90;1.60;;;;;;;;;;5045055;28;20502;-84
2021/08/20 09:59:56;;;;;;;1.53;1.43;;;;;;;;;;5042980;28;20432;-84
2021/08/20 10:02:27;;;;;;;2.40;2.20;;;;;;;;;;5071134;28;20833;-85
2021/08/20 10:04:57;;;;;;;1.90;1.70;;;;;;;;;;5045269;28;20787;-85
2021/08/20 10:07:26;;;;;;;2.17;1.70;;;;;;;;;;5045157;28;20428;-84
2021/08/20 10:09:53;;;;;;;3.70;2.00;;;;;;;;;;5046654;28;20452;-85
2021/08/20 10:12:21;;;;;;;2.10;1.60;;;;;;;;;;5046325;28;20402;-85
2021/08/20 10:14:47;;;;;;;1.50;1.40;;;;;;;;;;5057113;28;20450;-85
2021/08/20 10:17:14;;;;;;;3.30;1.87;;;;;;;;;;5047063;28;20448;-85
2021/08/20 10:19:44;;;;;;;1.50;1.40;;;;;;;;;;5046276;28;20439;-85
2021/08/20 10:22:11;;;;;;;1.73;1.63;;;;;;;;;;5046282;28;20848;-84
2021/08/20 10:24:37;;;;;;;1.83;1.40;;;;;;;;;;5046113;28;20447;-84
2021/08/20 10:27:05;;;;;;;1.57;1.47;;;;;;;;;;5041852;28;20498;-85
2021/08/20 10:29:32;;;;;;;1.20;1.10;;;;;;;;;;5046344;28;20417;-84
2021/08/20 10:31:59;;;;;;;2.00;1.53;;;;;;;;;;5043965;28;20387;-84
2021/08/20 10:34:31;;;;;;;2.73;1.57;;;;;;;;;;5045206;28;20450;-84
2021/08/20 10:37:05;;;;;;;2.10;1.40;;;;;;;;;;5046387;28;20415;-84
2021/08/20 10:39:31;;;;;;;1.63;1.50;;;;;;;;;;5046411;28;20417;-85
2021/08/20 10:42:11;;;;;;;1.40;1.30;;;;;;;;;;5057498;28;20519;-84
2021/08/20 10:44:38;;;;;;;1.03;0.97;;;;;;;;;;5044536;28;20387;-85
2021/08/20 10:47:04;;;;;;;2.97;1.40;;;;;;;;;;5046849;28;20416;-84
2021/08/20 10:49:40;;;;;;;1.43;1.33;;;;;;;;;;5044485;28;20452;-85
2021/08/20 10:52:06;;;;;;;2.10;1.30;;;;;;;;;;5044622;28;20467;-85
2021/08/20 10:54:33;;;;;;;1.17;1.07;;;;;;;;;;5046213;28;20439;-85
2021/08/20 10:56:59;;;;;;;1.87;1.20;;;;;;;;;;5055229;28;20489;-84
2021/08/20 10:59:37;;;;;;;1.53;1.40;;;;;;;;;;5047203;28;20416;-83
2021/08/20 11:02:24;;;;;;;1.20;1.10;;;;;;;;;;5071955;28;20459;-83
2021/08/20 11:05:03;;;;;;;1.37;1.07;;;;;;;;;;5035981;28;20861;-84
2021/08/20 11:07:35;;;;;;;1.30;1.20;;;;;;;;;;5045627;28;20410;-84
2021/08/20 11:10:01;;;;;;;1.60;1.23;;;;;;;;;;5046117;28;20410;-84
2021/08/20 11:12:35;;;;;;;1.97;1.00;;;;;;;;;;5045413;28;20402;-84
2021/08/20 11:15:21;;;;;;;1.53;1.43;;;;;;;;;;5041402;28;20402;-84
2021/08/20 11:17:48;;;;;;;1.50;1.33;;;;;;;;;;5040994;28;20478;-84
2021/08/20 11:20:24;;;;;;;1.50;1.17;;;;;;;;;;5056839;28;20806;-85
2021/08/20 11:23:15;;;;;;;1.93;1.20;;;;;;;;;;5056495;28;20464;-84
2021/08/20 11:25:41;;;;;;;1.27;1.17;;;;;;;;;;5049650;28;20857;-85
2021/08/20 11:28:09;;;;;;;1.83;1.10;;;;;;;;;;5049794;28;20411;-85
2021/08/20 11:30:36;;;;;;;7.07;1.20;;;;;;;;;;5045507;28;20428;-84
2021/08/20 11:33:09;;;;;;;1.60;1.50;;;;;;;;;;5060787;28;20423;-84
2021/08/20 11:35:35;;;;;;;1.87;1.40;;;;;;;;;;5048218;28;20412;-85
2021/08/20 11:38:01;;;;;;;5.57;2.03;;;;;;;;;;5050747;28;20383;-85
2021/08/20 11:40:27;;;;;;;1.80;1.70;;;;;;;;;;5049298;28;20470;-84
2021/08/20 11:43:05;;;;;;;2.53;1.60;;;;;;;;;;5048691;28;20411;-83
2021/08/20 11:45:31;;;;;;;3.37;1.23;;;;;;;;;;5043850;28;20402;-85
2021/08/20 11:48:01;;;;;;;1.20;1.10;;;;;;;;;;5059384;28;20790;-84
2021/08/20 11:50:28;;;;;;;1.50;1.37;;;;;;;;;;5050018;28;20395;-84
2021/08/20 11:52:54;;;;;;;1.70;1.60;;;;;;;;;;5061354;28;20425;-85
2021/08/20 11:55:20;;;;;;;1.33;1.23;;;;;;;;;;5051571;28;20442;-84
2021/08/20 11:57:46;;;;;;;1.50;1.40;;;;;;;;;;5057077;28;20418;-85
2021/08/20 12:00:13;;;;;;;1.57;1.40;;;;;;;;;;5045761;28;20526;-86
2021/08/20 12:02:39;;;;;;;1.80;1.60;;;;;;;;;;5045194;28;20386;-84
2021/08/20 12:05:12;;;;;;;2.07;1.63;;;;;;;;;;5047136;28;20426;-85
2021/08/20 12:07:38;;;;;;;2.30;1.10;;;;;;;;;;5048952;28;20407;-85
2021/08/20 12:10:04;;;;;;;2.00;1.30;;;;;;;;;;5048772;28;20411;-85
2021/08/20 12:12:33;;;;;;;1.50;1.30;;;;;;;;;;5047762;28;20607;-85
2021/08/20 12:15:00;;;;;;;2.00;1.23;;;;;;;;;;5042584;28;20461;-86
2021/08/20 12:17:30;;;;;;;2.77;2.33;;;;;;;;;;5061548;28;20419;-84
2021/08/20 12:19:56;;;;;;;2.27;1.70;;;;;;;;;;5047972;28;20454;-84
2021/08/20 12:22:32;;;;;;;1.47;1.37;;;;;;;;;;5047939;28;20655;-83
2021/08/20 12:24:58;;;;;;;1.60;1.43;;;;;;;;;;5047163;28;20438;-85
2021/08/20 12:27:26;;;;;;;1.50;1.40;;;;;;;;;;5047918;28;20454;-86
2021/08/20 12:29:58;;;;;;;1.20;1.10;;;;;;;;;;5044297;28;20568;-85
2021/08/20 12:32:25;;;;;;;2.27;1.17;;;;;;;;;;5057466;28;20444;-84
2021/08/20 12:35:01;;;;;;;1.43;1.33;;;;;;;;;;5047853;28;20452;-85
2021/08/20 12:37:28;;;;;;;1.40;1.13;;;;;;;;;;5055806;28;20461;-84
2021/08/20 12:40:04;;;;;;;1.60;1.50;;;;;;;;;;5055997;28;20432;-83
2021/08/20 12:42:30;;;;;;;1.60;1.40;;;;;;;;;;5043207;28;20570;-82
2021/08/20 12:45:16;;;;;;;1.67;1.57;;;;;;;;;;5057942;28;20430;-81
2021/08/20 12:47:43;;;;;;;2.10;1.23;;;;;;;;;;5044661;28;20919;-83
2021/08/20 12:50:10;;;;;;;1.47;1.30;;;;;;;;;;5058141;28;20519;-82
2021/08/20 12:52:37;;;;;;;1.30;1.20;;;;;;;;;;5055748;28;20436;-83
2021/08/20 12:55:32;;;;;;;1.60;1.50;;;;;;;;;;5054425;28;20437;-83
2021/08/20 12:57:59;;;;;;;1.50;1.40;;;;;;;;;;5048313;28;20430;-83
2021/08/20 13:00:26;;;;;;;1.43;1.33;;;;;;;;;;5042834;28;20800;-83
2021/08/20 13:02:52;;;;;;;1.43;1.33;;;;;;;;;;5059036;28;20494;-83
2021/08/20 13:05:18;;;;;;;1.83;1.20;;;;;;;;;;5065047;28;20435;-83
2021/08/20 13:07:44;;;;;;;1.20;1.10;;;;;;;;;;5048153;28;20445;-83
2021/08/20 13:10:11;;;;;;;1.63;1.53;;;;;;;;;;5052426;28;20492;-82
2021/08/20 13:12:37;;;;;;;1.53;1.20;;;;;;;;;;5057741;28;20436;-83
2021/08/20 13:15:03;;;;;;;1.40;1.23;;;;;;;;;;5042104;28;20412;-83
2021/08/20 13:17:29;;;;;;;1.50;1.40;;;;;;;;;;5047278;28;20400;-82
2021/08/20 13:19:56;;;;;;;1.50;1.30;;;;;;;;;;5048328;28;20459;-83
2021/08/20 13:22:22;;;;;;;1.30;1.20;;;;;;;;;;5045963;28;20938;-81
2021/08/20 13:24:48;;;;;;;1.40;1.30;;;;;;;;;;5045771;28;20443;-83
2021/08/20 13:27:14;;;;;;;1.73;1.20;;;;;;;;;;5044339;28;20413;-82
2021/08/20 13:29:40;;;;;;;2.13;1.53;;;;;;;;;;5044902;28;20383;-83
2021/08/20 13:32:06;;;;;;;1.40;1.30;;;;;;;;;;5057401;28;20423;-83
2021/08/20 13:34:33;;;;;;;1.43;1.20;;;;;;;;;;5049136;28;20422;-83
2021/08/20 13:36:59;;;;;;;1.50;1.23;;;;;;;;;;5047636;28;20432;-83
2021/08/20 13:39:25;;;;;;;1.73;1.37;;;;;;;;;;5046160;28;20896;-83
2021/08/20 13:41:51;;;;;;;1.93;1.30;;;;;;;;;;5041391;28;20465;-83
2021/08/20 13:44:17;;;;;;;1.23;1.13;;;;;;;;;;5047309;28;20396;-83
2021/08/20 13:46:43;;;;;;;2.27;1.50;;;;;;;;;;5045982;28;20411;-83
2021/08/20 13:49:14;;;;;;;1.60;1.50;;;;;;;;;;5044938;28;20900;-81
2021/08/20 13:51:40;;;;;;;1.77;1.20;;;;;;;;;;5047011;28;20399;-82
2021/08/20 13:54:06;;;;;;;1.63;1.20;;;;;;;;;;5041215;28;20488;-83
2021/08/20 13:56:32;;;;;;;1.20;1.10;;;;;;;;;;5044572;28;20985;-82
2021/08/20 13:58:58;;;;;;;1.57;1.47;;;;;;;;;;5045241;28;20740;-83
2021/08/20 14:01:24;;;;;;;1.60;1.50;;;;;;;;;;5054393;28;20936;-84
2021/08/20 14:03:50;;;;;;;1.20;1.10;;;;;;;;;;5055052;28;20451;-83
2021/08/20 14:06:16;;;;;;;2.13;1.40;;;;;;;;;;5044351;28;20482;-83
2021/08/20 14:08:42;;;;;;;1.83;1.20;;;;;;;;;;5058696;28;20448;-82
2021/08/20 14:11:09;;;;;;;2.50;1.30;;;;;;;;;;5047428;28;20955;-84
2021/08/20 14:13:35;;;;;;;1.27;1.10;;;;;;;;;;5046777;28;20439;-83
2021/08/20 14:16:01;;;;;;;1.30;1.17;;;;;;;;;;5043224;28;20497;-83
2021/08/20 14:18:27;;;;;;;1.33;1.20;;;;;;;;;;5046311;28;20524;-83
2021/08/20 14:20:53;;;;;;;1.10;1.00;;;;;;;;;;5039323;28;20468;-83
2021/08/20 14:23:19;;;;;;;1.40;1.30;;;;;;;;;;5046995;28;20395;-83
2021/08/20 14:25:46;;;;;;;1.20;1.10;;;;;;;;;;5046454;28;20773;-83
2021/08/20 14:28:13;;;;;;;1.20;1.07;;;;;;;;;;5046063;28;20471;-81
2021/08/20 14:30:39;;;;;;;1.90;1.33;;;;;;;;;;5044651;28;20414;-82
2021/08/20 14:33:05;;;;;;;2.30;1.53;;;;;;;;;;5041891;28;20421;-83
2021/08/20 14:35:31;;;;;;;1.27;1.17;;;;;;;;;;5045237;28;20429;-82
2021/08/20 14:37:57;;;;;;;1.90;1.40;;;;;;;;;;5044986;28;20415;-82
2021/08/20 14:40:24;;;;;;;1.80;1.33;;;;;;;;;;5046030;28;20507;-84
2021/08/20 14:42:50;;;;;;;1.53;1.00;;;;;;;;;;5045877;28;20436;-83
2021/08/20 14:45:16;;;;;;;2.60;1.27;;;;;;;;;;5044832;28;20407;-81